createdAt,value
2022-08-23T00:03:03.428Z,21.68
2022-08-23T00:08:09.069Z,21.65
2022-08-23T00:13:12.955Z,21.37
2022-08-23T00:18:18.457Z,21.65
2022-08-23T00:23:22.087Z,21.42
2022-08-23T00:28:25.842Z,21.75
2022-08-23T00:33:31.005Z,21.48
2022-08-23T00:38:35.230Z,21.50
2022-08-23T00:44:00.670Z,21.83
2022-08-23T00:49:09.953Z,21.29
2022-08-23T00:54:15.826Z,21.42
2022-08-23T00:59:21.094Z,21.27
2022-08-23T01:04:28.558Z,21.59
2022-08-23T01:09:32.542Z,21.83
2022-08-23T01:14:41.982Z,21.17
2022-08-23T01:19:52.227Z,21.15
2022-08-23T01:25:06.788Z,21.49
2022-08-23T01:30:18.681Z,20.87
2022-08-23T01:35:31.138Z,21.40
2022-08-23T01:40:36.927Z,21.43
2022-08-23T01:45:41.811Z,21.62
2022-08-23T01:50:48.474Z,20.39
2022-08-23T01:55:53.592Z,20.75
2022-08-23T02:00:57.958Z,21.02
2022-08-23T02:06:02.523Z,21.18
2022-08-23T02:11:12.707Z,20.94
2022-08-23T02:16:23.417Z,20.85
2022-08-23T02:21:31.401Z,20.77
2022-08-23T02:26:38.129Z,20.98
2022-08-23T02:31:42.941Z,21.01
2022-08-23T02:36:48.185Z,20.87
2022-08-23T02:41:53.977Z,21.01
2022-08-23T02:46:58.361Z,21.27
2022-08-23T02:52:02.063Z,21.24
2022-08-23T02:57:07.835Z,21.44
2022-08-23T03:02:14.035Z,21.78
2022-08-23T03:07:22.235Z,21.86
2022-08-23T03:12:30.711Z,21.80
2022-08-23T03:17:36.006Z,22.00
2022-08-23T03:22:48.348Z,22.02
2022-08-23T03:28:04.733Z,21.27
2022-08-23T03:33:10.386Z,21.35
2022-08-23T03:38:15.068Z,21.77
2022-08-23T03:43:23.896Z,21.89
2022-08-23T03:48:29.894Z,22.03
2022-08-23T03:53:37.106Z,22.08
2022-08-23T03:58:46.873Z,22.00
2022-08-23T04:03:54.281Z,22.25
2022-08-23T04:09:01.364Z,22.25
2022-08-23T04:14:10.305Z,22.19
2022-08-23T04:19:18.094Z,22.29
2022-08-23T04:24:41.728Z,22.22
2022-08-23T04:29:53.262Z,21.52
2022-08-23T04:35:03.430Z,21.48
2022-08-23T04:40:32.121Z,21.75
2022-08-23T04:45:44.863Z,22.37
2022-08-23T04:51:03.712Z,21.87
2022-08-23T04:56:15.055Z,22.13
2022-08-23T05:01:26.033Z,22.66
2022-08-23T05:06:34.569Z,22.52
2022-08-23T05:11:42.401Z,22.11
2022-08-23T05:16:50.549Z,22.67
2022-08-23T05:21:57.901Z,22.84
2022-08-23T05:27:21.433Z,23.46
2022-08-23T05:32:41.041Z,22.67
2022-08-23T05:38:03.598Z,23.25
2022-08-23T05:43:11.225Z,24.00
2022-08-23T05:48:19.065Z,23.95
2022-08-23T05:53:29.102Z,24.49
2022-08-23T05:58:35.991Z,24.44
2022-08-23T06:03:49.002Z,24.84
2022-08-23T06:08:56.188Z,24.79
2022-08-23T06:14:07.093Z,25.49
2022-08-23T06:19:15.106Z,25.05
2022-08-23T06:24:37.828Z,24.46
2022-08-23T06:29:49.605Z,22.97
2022-08-23T06:35:38.642Z,23.58
2022-08-23T06:40:47.571Z,25.69
2022-08-23T06:46:20.089Z,25.71
2022-08-23T06:51:37.516Z,24.46
2022-08-23T06:57:02.851Z,25.24
2022-08-23T07:02:24.440Z,25.29
2022-08-23T07:07:44.206Z,23.89
2022-08-23T07:12:54.384Z,24.15
2022-08-23T07:18:03.388Z,24.66
2022-08-23T07:23:12.876Z,25.43
2022-08-23T07:28:19.172Z,26.31
2022-08-23T07:33:25.783Z,26.65
2022-08-23T07:38:50.498Z,26.63
2022-08-23T07:44:01.968Z,27.07
2022-08-23T07:49:14.396Z,27.35
2022-08-23T07:54:29.086Z,27.09
2022-08-23T07:59:45.388Z,27.14
2022-08-23T08:05:11.118Z,27.65
2022-08-23T08:10:20.071Z,28.38
2022-08-23T08:15:30.709Z,28.88
2022-08-23T08:20:54.090Z,28.95
2022-08-23T08:26:29.469Z,27.38
2022-08-23T08:31:38.977Z,26.94
2022-08-23T08:36:49.716Z,26.93
2022-08-23T08:42:24.329Z,26.90
2022-08-23T08:47:36.329Z,27.47
2022-08-23T08:52:46.307Z,26.93
2022-08-23T08:58:02.916Z,26.62
2022-08-23T09:03:15.576Z,27.14
2022-08-23T09:08:42.410Z,27.43
2022-08-23T09:14:10.175Z,28.02
2022-08-23T09:19:16.027Z,28.28
2022-08-23T09:24:20.009Z,29.33
2022-08-23T09:29:40.842Z,29.76
2022-08-23T09:34:47.829Z,28.51
2022-08-23T09:40:15.017Z,28.13
2022-08-23T09:45:36.051Z,28.61
2022-08-23T09:50:49.533Z,29.04
2022-08-23T09:55:58.067Z,28.55
2022-08-23T10:01:12.007Z,28.00
2022-08-23T10:06:31.462Z,28.62
2022-08-23T10:11:42.688Z,28.93
2022-08-23T10:17:04.527Z,29.52
2022-08-23T10:22:15.908Z,30.03
2022-08-23T10:28:05.538Z,28.46
2022-08-23T10:33:20.354Z,29.52
2022-08-23T10:38:41.256Z,29.83
2022-08-23T10:43:59.529Z,30.35
2022-08-23T10:49:08.940Z,29.22
2022-08-23T10:54:24.137Z,28.99
2022-08-23T10:59:35.190Z,29.62
2022-08-23T11:04:49.608Z,29.77
2022-08-23T11:10:17.110Z,28.40
2022-08-23T11:15:33.166Z,29.88
2022-08-23T11:21:08.021Z,29.33
2022-08-23T11:27:06.637Z,29.92
2022-08-23T11:32:38.026Z,29.89
2022-08-23T11:37:55.253Z,29.79
2022-08-23T11:43:07.301Z,29.58
2022-08-23T11:48:20.316Z,30.95
2022-08-23T11:53:59.378Z,30.25
2022-08-23T11:59:31.438Z,32.90
2022-08-23T12:04:40.012Z,33.06
2022-08-23T12:09:57.655Z,32.62
2022-08-23T12:15:03.269Z,34.12
2022-08-23T12:20:34.363Z,35.25
2022-08-23T12:25:45.278Z,35.00
2022-08-23T12:30:56.368Z,33.45
2022-08-23T12:36:13.670Z,35.60
2022-08-23T12:41:24.437Z,33.94
2022-08-23T12:46:42.161Z,35.19
2022-08-23T12:51:59.483Z,34.46
2022-08-23T12:57:11.766Z,33.06
2022-08-23T13:02:23.920Z,32.96
2022-08-23T13:07:28.452Z,34.60
2022-08-23T13:12:33.816Z,33.87
2022-08-23T13:17:41.085Z,33.71
2022-08-23T13:22:58.368Z,33.94
2022-08-23T13:28:06.832Z,33.60
2022-08-23T13:33:22.361Z,32.43
2022-08-23T13:38:32.365Z,29.92
2022-08-23T13:43:41.125Z,28.39
2022-08-23T13:48:50.482Z,27.91
2022-08-23T13:53:54.821Z,28.52
2022-08-23T13:59:02.972Z,28.41
2022-08-23T14:04:07.838Z,30.41
2022-08-23T14:09:11.694Z,30.55
2022-08-23T14:14:16.872Z,30.47
2022-08-23T14:24:45.599Z,29.78
2022-08-23T14:29:50.875Z,29.74
2022-08-23T14:34:54.580Z,29.67
2022-08-23T14:39:58.840Z,30.33
2022-08-23T14:45:04.721Z,31.16
2022-08-23T14:50:11.401Z,30.24
2022-08-23T14:55:16.929Z,29.54
2022-08-23T15:00:22.468Z,30.09
2022-08-23T15:05:26.416Z,29.58
2022-08-23T15:15:55.498Z,29.53
2022-08-23T15:20:59.355Z,28.38
2022-08-23T15:26:03.602Z,27.61
2022-08-23T15:31:13.451Z,27.37
2022-08-23T15:36:18.309Z,27.59
2022-08-23T15:41:23.233Z,27.39
2022-08-23T15:46:30.270Z,27.62
2022-08-23T15:51:34.200Z,27.57
2022-08-23T15:56:42.801Z,27.56
2022-08-23T16:01:48.104Z,27.97
2022-08-23T16:06:52.707Z,27.70
2022-08-23T16:12:00.446Z,27.99
2022-08-23T16:17:16.201Z,27.52
2022-08-23T16:22:20.337Z,27.25
2022-08-23T16:27:24.221Z,27.60
2022-08-23T16:32:30.634Z,27.24
2022-08-23T16:37:36.189Z,27.34
2022-08-23T16:42:40.260Z,27.33
2022-08-23T16:47:46.055Z,27.41
2022-08-23T16:52:49.822Z,27.22
2022-08-23T16:57:53.626Z,27.31
2022-08-23T17:02:59.633Z,27.48
2022-08-23T17:08:03.543Z,26.97
2022-08-23T17:13:09.322Z,26.47
2022-08-23T17:18:14.470Z,26.80
2022-08-23T17:23:18.591Z,26.97
2022-08-23T17:28:22.667Z,26.52
2022-08-23T17:33:27.777Z,26.73
2022-08-23T17:38:31.645Z,26.62
2022-08-23T17:43:35.929Z,26.64
2022-08-23T17:48:41.299Z,26.80
2022-08-23T17:53:45.112Z,26.70
2022-08-23T17:58:48.841Z,26.52
2022-08-23T18:03:54.714Z,25.99
2022-08-23T18:08:58.562Z,26.11
2022-08-23T18:14:02.413Z,25.96
2022-08-23T18:19:09.438Z,25.87
2022-08-23T18:24:15.304Z,25.90
2022-08-23T18:29:19.193Z,25.90
2022-08-23T18:40:11.828Z,25.59
2022-08-23T18:45:15.773Z,24.62
2022-08-23T18:50:20.036Z,23.81
2022-08-23T18:55:25.291Z,23.34
2022-08-23T19:00:29.244Z,24.30
2022-08-23T19:05:40.040Z,23.77
2022-08-23T19:10:47.941Z,24.30
2022-08-23T19:15:52.461Z,24.45
2022-08-23T19:20:56.932Z,24.49
2022-08-23T19:26:03.055Z,23.64
2022-08-23T19:31:08.429Z,23.72
2022-08-23T19:36:29.395Z,23.81
2022-08-23T19:41:37.774Z,23.51
2022-08-23T19:46:42.332Z,23.52
2022-08-23T19:51:46.212Z,23.65
2022-08-23T19:56:56.516Z,22.81
2022-08-23T20:02:00.565Z,22.34
2022-08-23T20:07:06.398Z,21.98
2022-08-23T20:12:11.473Z,22.54
2022-08-23T20:17:15.223Z,21.95
2022-08-23T20:22:36.529Z,21.88
2022-08-23T20:27:41.567Z,21.85
2022-08-23T20:32:45.520Z,21.51
2022-08-23T20:37:49.552Z,21.55
2022-08-23T20:42:54.827Z,21.29
2022-08-23T20:47:58.514Z,21.21
2022-08-23T20:53:02.547Z,21.08
2022-08-23T20:58:08.352Z,21.34
2022-08-23T21:03:12.071Z,21.63
2022-08-23T21:08:16.150Z,21.32
2022-08-23T21:13:21.306Z,21.61
2022-08-23T21:18:25.119Z,21.49
2022-08-23T21:23:28.871Z,21.41
2022-08-23T21:28:34.134Z,22.13
2022-08-23T21:33:40.240Z,22.51
2022-08-23T21:38:45.514Z,22.52
2022-08-23T21:43:50.562Z,22.09
2022-08-23T21:48:54.534Z,22.05
2022-08-23T21:53:58.559Z,22.08
2022-08-23T21:59:07.841Z,22.48
2022-08-23T22:04:13.639Z,22.55
2022-08-23T22:09:20.722Z,23.07
2022-08-23T22:14:33.155Z,23.00
2022-08-23T22:19:36.636Z,22.86
2022-08-23T22:24:40.646Z,22.75
2022-08-23T22:29:46.573Z,23.37
2022-08-23T22:34:50.449Z,22.90
2022-08-23T22:39:56.816Z,23.46
2022-08-23T22:45:03.054Z,22.82
2022-08-23T22:50:07.876Z,22.70
2022-08-23T22:55:11.608Z,22.79
2022-08-23T23:00:16.983Z,22.73
2022-08-23T23:05:20.819Z,22.78
2022-08-23T23:10:24.503Z,22.56
2022-08-23T23:15:29.724Z,22.71
2022-08-23T23:20:39.397Z,22.61
2022-08-23T23:25:43.826Z,22.83
2022-08-23T23:30:51.240Z,21.11
2022-08-23T23:35:55.167Z,21.23
2022-08-23T23:41:20.956Z,19.95
2022-08-23T23:46:49.742Z,19.89
2022-08-23T23:51:53.847Z,19.57
2022-08-23T23:56:58.697Z,19.28
